Time;durP1;ratioP1;P1;durP2;ratioP2;P2;SDS_P1;SDS_P2;PMS_P1;PMS_P2;Temp;Humidity;BMP_temperature;BMP_pressure;BME280_temperature;BME280_humidity;BME280_pressure;Samples;Min_cycle;Max_cycle;Signal;HPM_P1;HPM_P2
2022/04/15 00:06:08;;;;;;;;;;;;;;;13.55;83.73;101578.19;15677706;28;20045;-64
2022/04/15 00:13:42;;;;;;;271.90;250.37;;;;;;;13.38;83.14;101577.38;15661354;28;19999;-63
2022/04/15 00:21:14;;;;;;;;;;;;;;;13.40;82.10;101578.69;15677523;28;20037;-64
2022/04/15 00:28:48;;;;;;;300.27;277.33;;;;;;;13.16;82.92;101575.53;15678094;28;20023;-64
2022/04/15 00:36:20;;;;;;;;;;;;;;;13.22;83.42;101583.47;15660274;28;20041;-63
2022/04/15 00:43:58;;;;;;;294.42;271.30;;;;;;;13.30;82.91;101579.00;15675554;28;20365;-64
2022/04/15 00:51:32;;;;;;;304.38;280.27;;;;;;;13.11;82.92;101581.28;15669804;28;20041;-64
2022/04/15 00:59:07;;;;;;;324.92;299.23;;;;;;;13.09;82.08;101572.41;15688637;28;20044;-63
2022/04/15 01:06:40;;;;;;;309.52;286.83;;;;;;;13.19;80.97;101575.72;15687295;28;20056;-63
2022/04/15 01:14:14;;;;;;;332.10;306.30;;;;;;;12.99;80.79;101587.56;15686634;28;20457;-65
2022/04/15 01:21:55;;;;;;;358.40;331.20;;;;;;;12.50;79.86;101595.19;15668547;28;20504;-62
2022/04/15 01:29:28;;;;;;;396.83;367.40;;;;;;;12.18;80.18;101598.38;15686072;28;20045;-64
2022/04/15 01:37:01;;;;;;;;;;;;;;;12.28;79.35;101606.47;15686114;28;20449;-64
2022/04/15 01:44:34;;;;;;;373.17;347.13;;;;;;;12.07;80.32;101614.63;15671612;28;19921;-63
2022/04/15 01:52:08;;;;;;;369.27;343.67;;;;;;;11.94;79.93;101616.38;15684214;28;20048;-61
2022/04/15 01:59:43;;;;;;;425.80;396.85;;;;;;;11.73;79.88;101616.03;15662998;28;20037;-63
2022/04/15 02:07:15;;;;;;;408.40;380.50;;;;;;;11.72;78.51;101621.97;15683105;28;20095;-63
2022/04/15 02:14:48;;;;;;;329.58;306.17;;;;;;;11.62;77.84;101619.41;15665448;28;20520;-63
2022/04/15 02:22:20;;;;;;;331.55;307.48;;;;;;;11.79;76.99;101634.38;15682865;28;20060;-69
2022/04/15 02:29:54;;;;;;;405.35;366.38;;;;;;;11.42;77.85;101627.16;15681437;28;20053;-64
2022/04/15 02:37:26;;;;;;;389.05;355.98;;;;;;;11.11;77.99;101635.44;15681710;28;20079;-62
2022/04/15 02:45:00;;;;;;;358.80;324.63;;;;;;;11.12;77.15;101636.25;15671266;28;20456;-61
2022/04/15 02:52:33;;;;;;;257.25;227.88;;;;;;;11.02;76.65;101639.28;15666675;28;20056;-64
2022/04/15 03:00:12;;;;;;;1537.22;783.42;;;;;;;10.93;76.21;101647.56;15663240;28;20037;-61
2022/04/15 03:07:44;;;;;;;1544.15;788.28;;;;;;;10.58;75.51;101647.22;15680201;28;20044;-64
2022/04/15 03:15:18;;;;;;;1999.90;999.90;;;;;;;10.99;74.94;101651.91;15661672;28;20040;-64
2022/04/15 03:22:50;;;;;;;1537.40;781.35;;;;;;;10.84;75.10;101650.31;15679921;28;20037;-60
2022/04/15 03:30:24;;;;;;;220.05;186.48;;;;;;;10.80;75.36;101646.47;15679892;28;20052;-61
2022/04/15 03:37:57;;;;;;;180.88;124.13;;;;;;;10.71;75.93;101651.13;15661502;28;20536;-63
2022/04/15 03:45:31;;;;;;;117.20;89.47;;;;;;;10.82;75.74;101654.53;15677438;28;20048;-64
2022/04/15 03:53:04;;;;;;;282.95;253.70;;;;;;;10.89;75.72;101649.34;15678996;28;20690;-63
2022/04/15 04:00:37;;;;;;;220.45;184.15;;;;;;;10.88;76.17;101664.47;15653422;28;20085;-63
2022/04/15 04:08:09;;;;;;;1999.90;999.90;;;;;;;10.67;76.07;101664.06;15675113;28;20502;-63
2022/04/15 04:15:43;;;;;;;1544.55;788.13;;;;;;;10.91;75.61;101667.44;15683811;28;20049;-64
2022/04/15 04:23:16;;;;;;;1999.90;999.90;;;;;;;10.58;76.37;101661.16;15669116;28;20099;-63
2022/04/15 04:30:49;;;;;;;1999.90;999.90;;;;;;;10.96;75.16;101672.94;15668802;28;20127;-63
2022/04/15 04:38:21;;;;;;;1999.90;999.90;;;;;;;10.81;75.08;101681.63;15687247;28;20057;-62
2022/04/15 04:45:56;;;;;;;1999.90;999.90;;;;;;;10.72;75.89;101697.44;15690707;28;20045;-64
2022/04/15 04:53:42;;;;;;;1543.90;785.83;;;;;;;10.62;76.00;101698.47;15690147;28;20049;-63
2022/04/15 05:01:16;;;;;;;1999.90;999.90;;;;;;;10.95;74.95;101713.16;15686123;28;20072;-63
2022/04/15 05:08:48;;;;;;;1999.90;999.90;;;;;;;10.56;75.78;101724.84;15675150;28;20486;-63
2022/04/15 05:16:22;;;;;;;1551.53;787.17;;;;;;;10.69;76.13;101712.84;15654776;28;20514;-63
2022/04/15 05:23:54;;;;;;;1999.90;999.90;;;;;;;10.83;75.42;101721.22;15684696;28;20163;-64
2022/04/15 05:31:28;;;;;;;1552.93;797.30;;;;;;;10.91;75.95;101726.09;15685260;28;20398;-65
2022/04/15 05:39:03;;;;;;;1999.90;999.90;;;;;;;11.03;75.00;101733.94;15685963;28;20208;-61
2022/04/15 05:46:37;;;;;;;1999.90;999.90;;;;;;;11.15;73.97;101737.06;15698081;28;20128;-64
2022/04/15 05:54:10;;;;;;;1999.90;999.90;;;;;;;11.19;74.22;101745.63;15688443;28;20048;-63
2022/04/15 06:01:43;;;;;;;1999.90;999.90;;;;;;;11.37;73.52;101752.22;15683780;28;20465;-64
2022/04/15 06:09:16;;;;;;;1999.90;999.90;;;;;;;10.74;74.71;101753.81;15682617;28;20407;-64
2022/04/15 06:16:51;;;;;;;1999.90;999.90;;;;;;;11.24;73.97;101759.47;15680961;28;20263;-65
2022/04/15 06:24:25;;;;;;;1999.90;999.90;;;;;;;11.52;73.17;101775.06;15681420;28;20067;-63
2022/04/15 06:32:00;;;;;;;1999.90;999.90;;;;;;;11.60;72.99;101778.25;15681061;28;20051;-63
2022/04/15 06:39:33;;;;;;;1999.90;999.90;;;;;;;11.57;72.78;101777.75;15680687;28;20049;-64
2022/04/15 06:47:07;;;;;;;1999.90;999.90;;;;;;;11.53;73.35;101787.06;15680729;28;20045;-62
2022/04/15 06:54:39;;;;;;;1999.90;999.90;;;;;;;11.69;73.05;101793.16;15657353;28;20123;-64
2022/04/15 07:02:12;;;;;;;1999.90;999.90;;;;;;;11.85;71.94;101798.09;15643436;28;20045;-62
2022/04/15 07:09:45;;;;;;;;;;;;;;;12.03;70.93;101801.03;15647197;28;20128;-64
2022/04/15 07:17:19;;;;;;;1999.90;999.90;;;;;;;11.71;71.75;101799.25;15618949;28;19999;-63
2022/04/15 07:24:51;;;;;;;;;;;;;;;11.91;71.80;101801.59;15618238;28;20574;-64
2022/04/15 07:32:27;;;;;;;1999.90;999.90;;;;;;;11.66;72.02;101808.56;15610212;28;19924;-61
2022/04/15 07:40:00;;;;;;;1999.90;999.90;;;;;;;11.66;71.99;101805.78;15672631;28;20041;-63
2022/04/15 07:47:33;;;;;;;1999.90;999.90;;;;;;;11.83;71.34;101810.75;15679123;28;20041;-62
2022/04/15 07:55:06;;;;;;;1999.90;999.90;;;;;;;11.70;71.68;101820.78;15684975;28;20061;-60
2022/04/15 08:02:39;;;;;;;1999.90;999.90;;;;;;;11.95;71.05;101833.38;15687180;28;20095;-63
2022/04/15 08:10:12;;;;;;;1999.90;999.90;;;;;;;11.85;71.41;101839.22;15679923;28;20068;-63
2022/04/15 08:17:45;;;;;;;1999.90;999.90;;;;;;;11.53;72.43;101842.97;15681068;28;20498;-58
2022/04/15 08:25:17;;;;;;;1999.90;999.90;;;;;;;11.66;72.01;101844.91;15686228;28;20041;-59
2022/04/15 08:32:52;;;;;;;1999.90;999.90;;;;;;;11.73;71.93;101847.28;15670672;28;20037;-59
2022/04/15 08:40:27;;;;;;;1999.90;999.90;;;;;;;11.68;72.14;101853.84;15682778;28;20040;-59
2022/04/15 08:48:02;;;;;;;1999.90;999.90;;;;;;;11.88;70.93;101851.75;15676570;28;20045;-60
2022/04/15 08:55:35;;;;;;;1999.90;999.90;;;;;;;11.81;71.50;101863.38;15664741;28;20057;-62
2022/04/15 09:03:08;;;;;;;1999.90;999.90;;;;;;;11.88;70.64;101879.72;15684860;28;20048;-63
2022/04/15 09:10:41;;;;;;;;;;;;;;;12.11;70.96;101887.03;15683566;28;20048;-63
2022/04/15 09:18:30;;;;;;;1999.90;999.90;;;;;;;11.84;72.52;101905.50;15670043;28;19921;-61
2022/04/15 09:26:02;;;;;;;1999.90;999.90;;;;;;;12.00;71.03;101896.81;15678585;28;20049;-61
2022/04/15 09:33:36;;;;;;;1999.90;999.90;;;;;;;12.10;71.60;101904.97;15622353;28;20106;-57
2022/04/15 09:41:19;;;;;;;1999.90;999.90;;;;;;;12.13;71.38;101916.34;15644356;28;20048;-60
2022/04/15 09:49:02;;;;;;;1999.90;999.90;;;;;;;12.14;71.85;101919.97;15647748;28;20049;-58
2022/04/15 09:56:36;;;;;;;1999.90;999.90;;;;;;;11.99;72.04;101911.94;15672823;28;20605;-63
2022/04/15 10:04:11;;;;;;;1999.90;999.90;;;;;;;11.85;73.08;101925.91;15679214;28;20045;-62
2022/04/15 10:11:44;;;;;;;1518.47;763.00;;;;;;;12.06;72.72;101929.94;15677224;28;20434;-61
2022/04/15 10:19:20;;;;;;;1999.90;999.90;;;;;;;11.63;73.98;101918.25;15675267;28;20418;-61
2022/04/15 10:26:58;;;;;;;295.33;265.45;;;;;;;11.54;75.86;101931.28;15662302;28;20474;-62
2022/04/15 10:34:44;;;;;;;252.88;223.07;;;;;;;11.80;75.15;101931.63;15666383;28;20107;-64
2022/04/15 10:42:22;;;;;;;362.77;327.88;;;;;;;11.63;75.79;101931.41;15639761;28;20048;-62
2022/04/15 10:50:01;;;;;;;1141.43;626.53;;;;;;;11.84;75.11;101938.25;15674681;28;20103;-63
2022/04/15 10:57:35;;;;;;;303.13;274.75;;;;;;;11.88;75.20;101933.72;15677766;28;20072;-62
2022/04/15 11:05:11;;;;;;;275.58;253.30;;;;;;;12.00;76.92;101936.78;15678560;28;20052;-62
2022/04/15 11:12:45;;;;;;;384.45;354.80;;;;;;;12.38;76.25;101936.47;15677281;28;20041;-62
2022/04/15 11:20:20;;;;;;;327.27;303.02;;;;;;;12.07;77.93;101948.38;15678224;28;20055;-61
2022/04/15 11:27:52;;;;;;;335.38;311.88;;;;;;;11.88;79.03;101956.09;15678785;28;20048;-62
2022/04/15 11:35:30;;;;;;;286.17;265.85;;;;;;;11.96;80.43;101957.28;15678229;28;20036;-62
2022/04/15 11:43:07;;;;;;;317.10;293.70;;;;;;;12.27;79.28;101957.44;15667208;28;20045;-63
2022/04/15 11:50:40;;;;;;;312.83;291.52;;;;;;;12.33;77.73;101961.81;15670628;28;20041;-63
2022/04/15 11:58:13;;;;;;;;;;;;;;;12.64;77.43;101971.13;15653511;28;20087;-62
2022/04/15 12:05:46;;;;;;;315.57;294.47;;;;;;;12.66;76.94;101976.41;15664487;28;20385;-63
2022/04/15 12:13:19;;;;;;;;;;;;;;;12.61;76.61;101977.38;15673694;28;20033;-64
2022/04/15 12:20:53;;;;;;;558.10;508.60;;;;;;;12.94;75.19;101991.16;15680950;28;19925;-64
2022/04/15 12:36:17;;;;;;;1532.90;768.33;;;;;;;15.74;67.08;101996.69;15659466;28;20167;-64
2022/04/15 12:43:49;;;;;;;1999.90;999.90;;;;;;;15.00;66.71;101998.63;15637270;28;20049;-64
2022/04/15 12:51:24;;;;;;;1999.90;999.90;;;;;;;13.74;70.92;102001.38;15673873;28;20088;-64
2022/04/15 12:58:57;;;;;;;1999.90;999.90;;;;;;;13.66;70.86;102006.97;15677103;28;20044;-64
2022/04/15 13:06:31;;;;;;;1999.90;999.90;;;;;;;13.35;71.06;102010.59;15683199;28;20087;-64
2022/04/15 13:14:03;;;;;;;;;;;;;;;13.66;70.48;102006.97;15677392;28;20049;-64
2022/04/15 13:21:37;;;;;;;1999.90;999.90;;;;;;;13.23;72.02;102021.53;15682232;28;19963;-64
2022/04/15 13:29:09;;;;;;;1999.90;999.90;;;;;;;13.38;71.17;102025.94;15671528;28;20090;-64
2022/04/15 13:36:43;;;;;;;1567.65;795.25;;;;;;;13.27;70.52;102022.56;15680778;28;20047;-67
2022/04/15 13:44:16;;;;;;;1999.90;999.90;;;;;;;13.27;70.00;102036.59;15652536;28;20132;-64
2022/04/15 13:51:49;;;;;;;1999.90;999.90;;;;;;;13.73;70.22;102030.56;15681876;28;20049;-63
2022/04/15 13:59:21;;;;;;;;;;;;;;;13.29;69.75;102043.53;15683207;28;20053;-64
2022/04/15 14:06:55;;;;;;;1999.90;999.90;;;;;;;13.23;70.27;102039.22;15682980;28;19921;-66
2022/04/15 14:14:29;;;;;;;1999.90;999.90;;;;;;;12.93;71.14;102065.97;15679109;28;20045;-64
2022/04/15 14:22:03;;;;;;;1999.90;999.90;;;;;;;12.48;72.80;102079.03;15680317;28;20045;-66
2022/04/15 14:29:35;;;;;;;327.35;294.75;;;;;;;12.04;74.95;102096.47;15677780;28;20132;-65
2022/04/15 14:37:09;;;;;;;265.33;239.45;;;;;;;12.12;74.25;102085.38;15642782;28;20133;-65
2022/04/15 14:44:41;;;;;;;1999.90;999.90;;;;;;;12.27;73.84;102089.81;15643156;28;20091;-65
2022/04/15 14:52:15;;;;;;;274.70;246.57;;;;;;;11.73;76.15;102108.19;15633839;28;20056;-64
2022/04/15 14:59:47;;;;;;;;;;;;;;;11.09;77.73;102122.97;15680291;28;20045;-64
2022/04/15 15:07:20;;;;;;;1999.90;999.90;;;;;;;10.96;75.21;102108.63;15679076;28;19928;-63
2022/04/15 15:14:52;;;;;;;1999.90;999.90;;;;;;;11.13;74.10;102132.38;15678039;28;20048;-63
2022/04/15 15:22:26;;;;;;;1999.90;999.90;;;;;;;11.20;73.04;102144.84;15669893;28;20037;-64
2022/04/15 15:29:58;;;;;;;1999.90;999.90;;;;;;;10.61;74.48;102159.34;15678928;28;20049;-66
2022/04/15 15:37:32;;;;;;;1999.90;999.90;;;;;;;11.01;73.68;102168.31;15673041;28;20053;-64
2022/04/15 15:45:05;;;;;;;;;;;;;;;10.82;72.97;102179.47;15634909;28;20063;-66
2022/04/15 15:52:39;;;;;;;1999.90;999.90;;;;;;;10.41;73.93;102189.16;15640236;28;19932;-64
2022/04/15 16:00:14;;;;;;;1999.90;999.90;;;;;;;10.38;73.21;102197.31;15684252;28;20303;-67
2022/04/15 16:07:48;;;;;;;1999.90;999.90;;;;;;;10.50;73.50;102213.63;15663450;28;20045;-64
2022/04/15 16:15:20;;;;;;;;;;;;;;;10.12;74.16;102224.63;15532211;28;20524;-66
2022/04/15 16:22:54;;;;;;;1999.90;999.90;;;;;;;10.09;73.84;102237.19;15463672;28;20041;-64
2022/04/15 16:30:28;;;;;;;1999.90;999.90;;;;;;;10.20;74.00;102240.69;15493331;28;20497;-64
2022/04/15 16:38:02;;;;;;;1999.90;999.90;;;;;;;10.22;73.32;102260.00;15534631;28;20074;-64
2022/04/15 16:45:35;;;;;;;1999.90;999.90;;;;;;;10.09;73.36;102272.59;15503323;28;20050;-63
2022/04/15 16:53:10;;;;;;;1999.90;999.90;;;;;;;9.74;74.11;102273.72;15478301;28;20050;-61
2022/04/15 17:00:42;;;;;;;;;;;;;;;10.15;73.52;102279.81;15482666;28;20054;-62
2022/04/15 17:08:16;;;;;;;1999.90;999.90;;;;;;;9.57;75.06;102278.84;15487108;28;20379;-63
2022/04/15 17:15:48;;;;;;;1999.90;999.90;;;;;;;9.53;74.13;102295.31;15482117;28;20451;-60
2022/04/15 17:23:25;;;;;;;1999.90;999.90;;;;;;;9.83;73.25;102292.34;15511349;28;20046;-63
2022/04/15 17:30:57;;;;;;;1999.90;999.90;;;;;;;9.85;74.06;102294.84;15506039;28;20046;-63
2022/04/15 17:38:31;;;;;;;1999.90;999.90;;;;;;;9.49;74.49;102299.81;15458577;28;20046;-63
2022/04/15 17:46:04;;;;;;;;;;;;;;;9.45;74.23;102313.47;15497674;28;20043;-61
2022/04/15 17:53:39;;;;;;;1999.90;999.90;;;;;;;9.56;73.86;102328.19;15496842;28;19971;-59
2022/04/15 18:01:13;;;;;;;1999.90;999.90;;;;;;;9.18;74.78;102352.91;15464396;28;20440;-63
2022/04/15 18:08:46;;;;;;;;;;;;;;;9.11;75.60;102366.28;15499628;28;20046;-65
2022/04/15 18:16:18;;;;;;;1999.90;999.90;;;;;;;8.90;76.08;102378.59;15486505;28;19925;-65
2022/04/15 18:23:52;;;;;;;1999.90;999.90;;;;;;;9.14;75.24;102401.91;15531947;28;20049;-64
2022/04/15 18:31:24;;;;;;;;;;;;;;;9.20;74.51;102411.94;15490740;28;20431;-62
2022/04/15 18:38:58;;;;;;;1999.90;999.90;;;;;;;9.18;74.01;102422.53;15517194;28;19921;-61
2022/04/15 18:46:30;;;;;;;1999.90;999.90;;;;;;;8.89;74.48;102436.22;15483522;28;20049;-63
2022/04/15 18:54:03;;;;;;;1999.90;999.90;;;;;;;8.80;74.39;102435.13;15501362;28;20093;-64
2022/04/15 19:01:36;;;;;;;1999.90;999.90;;;;;;;8.77;73.98;102438.47;15483183;28;20444;-63
2022/04/15 19:09:09;;;;;;;1999.90;999.90;;;;;;;8.91;73.76;102455.44;15477763;28;20054;-61
2022/04/15 19:16:41;;;;;;;1999.90;999.90;;;;;;;8.92;73.37;102466.28;15480238;28;20053;-61
2022/04/15 19:24:15;;;;;;;1999.90;999.90;;;;;;;8.92;72.72;102480.19;15511779;28;20046;-63
2022/04/15 19:31:47;;;;;;;;;;;;;;;9.00;72.21;102487.16;15494956;28;20052;-63
2022/04/15 19:39:21;;;;;;;1999.90;999.90;;;;;;;9.21;71.16;102501.91;15494006;28;20004;-62
2022/04/15 19:46:53;;;;;;;1999.90;999.90;;;;;;;9.03;71.38;102522.81;15497180;28;20526;-61
2022/04/15 19:54:27;;;;;;;1999.90;999.90;;;;;;;8.93;71.09;102526.41;15502847;28;20039;-62
2022/04/15 20:01:59;;;;;;;1999.90;999.90;;;;;;;8.72;71.44;102527.53;15494998;28;20072;-61
2022/04/15 20:09:32;;;;;;;1999.90;999.90;;;;;;;8.63;70.47;102538.34;15512370;28;20047;-65
2022/04/15 20:17:05;;;;;;;;;;;;;;;8.46;68.43;102534.19;15481120;28;20050;-61
2022/04/15 20:24:42;;;;;;;1999.90;999.90;;;;;;;8.87;68.73;102547.03;15463418;28;19922;-63
2022/04/15 20:32:14;;;;;;;1999.90;999.90;;;;;;;8.93;68.60;102539.50;15506833;28;20450;-65
2022/04/15 20:39:50;;;;;;;1999.90;999.90;;;;;;;8.46;69.47;102550.88;15494179;28;20416;-62
2022/04/15 20:47:23;;;;;;;1999.90;999.90;;;;;;;8.29;70.12;102556.63;15477417;28;20467;-62
2022/04/15 20:55:00;;;;;;;1999.90;999.90;;;;;;;8.60;69.51;102557.56;15500976;28;20050;-62
2022/04/15 21:02:32;;;;;;;1999.90;999.90;;;;;;;8.72;69.20;102560.91;15501814;28;20038;-58
2022/04/15 21:10:07;;;;;;;1999.90;999.90;;;;;;;8.58;69.49;102557.84;15485512;28;20050;-60
2022/04/15 21:17:40;;;;;;;1999.90;999.90;;;;;;;8.17;70.13;102562.41;15483582;28;20030;-59
2022/04/15 21:25:13;;;;;;;1999.90;999.90;;;;;;;8.29;69.52;102574.13;15481995;28;20034;-63
2022/04/15 21:32:45;;;;;;;1999.90;999.90;;;;;;;8.02;70.68;102576.25;15498313;28;20130;-60
2022/04/15 21:40:22;;;;;;;1999.90;999.90;;;;;;;8.05;69.60;102586.84;15499115;28;20264;-60
2022/04/15 21:47:54;;;;;;;1999.90;999.90;;;;;;;8.02;69.25;102590.16;15500913;28;20471;-58
2022/04/15 21:55:31;;;;;;;1999.90;999.90;;;;;;;8.20;68.22;102608.31;15481843;28;20435;-60
2022/04/15 22:03:05;;;;;;;1999.90;999.90;;;;;;;7.81;68.81;102614.22;15498809;28;20117;-63
2022/04/15 22:10:38;;;;;;;1999.90;999.90;;;;;;;8.00;68.72;102622.94;15501507;28;20050;-61
2022/04/15 22:18:11;;;;;;;1999.90;999.90;;;;;;;7.82;67.00;102627.03;15497040;28;20046;-63
2022/04/15 22:25:45;;;;;;;1999.90;999.90;;;;;;;7.48;64.63;102632.88;15497354;28;20046;-59
2022/04/15 22:33:19;;;;;;;1999.90;999.90;;;;;;;7.67;64.08;102632.47;15469601;28;20066;-61
2022/04/15 22:40:53;;;;;;;;;;;;;;;7.40;65.14;102643.63;15499474;28;20053;-60
2022/04/15 22:48:25;;;;;;;1999.90;999.90;;;;;;;6.69;65.45;102656.84;15498698;28;19922;-62
2022/04/15 23:03:50;;;;;;;1999.90;999.90;;;;;;;6.53;65.58;102669.66;15480435;28;20038;-62
2022/04/15 23:11:24;;;;;;;1999.90;999.90;;;;;;;6.24;66.16;102680.09;15479697;28;20089;-63
2022/04/15 23:18:56;;;;;;;1999.90;999.90;;;;;;;6.16;66.09;102691.66;15470025;28;20058;-63
2022/04/15 23:26:30;;;;;;;1999.90;999.90;;;;;;;5.94;65.14;102691.59;15481561;28;20061;-64
2022/04/15 23:34:02;;;;;;;1999.90;999.90;;;;;;;5.66;66.39;102695.28;15482456;28;20085;-63
2022/04/15 23:41:36;;;;;;;1999.90;999.90;;;;;;;5.92;65.86;102700.16;15490738;28;20534;-63
2022/04/15 23:49:09;;;;;;;1999.90;999.90;;;;;;;5.70;66.87;102704.75;15478215;28;20412;-64
2022/04/15 23:56:43;;;;;;;1999.90;999.90;;;;;;;5.92;66.47;102711.25;15494680;28;20097;-62
